Latest Weather Observations for Proserpine

IDQ60801

Issued at 6:32 pm EST Saturday 21 January 2017 (issued every 30 minutes, with the page automatically refreshed every 10 minutes)

About weather observations | Map of weather stations | Latest weather observations for QLD | Other Formats
Station Details ID: 033247 Name: PROSERPINE AIRPORT Lat: -20.49 Lon: 148.56 Height: 19.7 m
Data from the previous 72 hours. | See also: Recent months at Proserpine
Date/Time
EST
Temp
°C
App
Temp
°C
Dew
Point
°C
Rel
Hum
%
Delta-T
°C
Wind Press
QNH
hPa
Press
MSL
hPa
Rain since
9am
mm
Dir  Spd
km/h
Gust
km/h
Spd
kts
Gust
kts
21/06:00pm 30.4 33.0 22.0 60 5.7 N 11 15 6 8 1006.5 1006.4 0.0
21/05:30pm 31.4 34.1 22.1 57 6.3 N 11 15 6 8 1006.3 1006.2 0.0
21/05:00pm 31.9 34.0 21.7 54 6.9 NNE 13 19 7 10 1006.0 1005.9 0.0
21/04:30pm 32.5 34.8 22.0 54 7.1 NNE 13 17 7 9 1005.9 1005.8 0.0
21/04:00pm 33.1 35.0 22.8 54 7.1 ENE 17 24 9 13 1005.9 1005.8 0.0
21/03:30pm 33.0 34.9 22.7 54 7.1 E 17 22 9 12 1006.1 1006.0 0.0
21/03:00pm 33.4 35.8 23.7 56 6.8 ESE 17 24 9 13 1006.3 1006.2 0.0
21/02:30pm 33.5 36.2 22.9 53 7.3 E 13 24 7 13 1006.6 1006.5 0.0
21/02:00pm 33.4 35.3 19.8 44 9.0 NE 9 13 5 7 1007.0 1006.9 0.0
21/01:30pm 33.3 35.5 21.1 48 8.2 NNE 11 17 6 9 1007.4 1007.3 0.0
21/01:00pm 32.9 34.7 20.4 47 8.4 NE 11 20 6 11 1007.6 1007.5 0.0
21/12:30pm 32.5 34.8 22.0 54 7.1 NNE 13 20 7 11 1007.8 1007.7 0.0
21/12:00pm 32.4 35.6 23.1 58 6.4 NNE 11 20 6 11 1008.0 1007.9 0.0
21/11:30am 31.6 34.1 21.7 55 6.7 NNE 11 17 6 9 1008.6 1008.5 0.0
21/11:00am 30.2 32.7 21.0 58 6.1 N 9 17 5 9 1009.1 1009.0 0.0
21/10:30am 30.4 32.8 21.5 59 6.0 N 11 17 6 9 1009.4 1009.3 0.0
21/10:00am 29.8 31.9 21.7 61 5.5 N 13 19 7 10 1009.7 1009.6 0.0
21/09:30am 28.9 32.0 22.2 67 4.5 NW 9 13 5 7 1009.9 1009.8 0.0
21/09:00am 28.6 32.7 22.3 68 4.3 N 4 9 2 5 1010.0 1009.9 0.0
21/08:30am 27.7 32.2 21.5 69 4.1 CALM 0 4 0 2 1010.0 1009.9 0.0
21/08:00am 26.5 30.1 22.3 78 2.8 SSW 7 9 4 5 1009.9 1009.8 0.0
21/07:30am 24.8 28.4 22.1 85 1.8 SW 6 7 3 4 1009.7 1009.6 0.0
21/07:00am 23.6 27.5 21.9 90 1.1 SW 4 7 2 4 1009.7 1009.6 0.0
21/06:30am 22.5 26.8 21.1 92 0.9 CALM 0 0 0 0 1009.5 1009.4 0.0
21/06:00am 21.6 25.7 20.8 95 0.5 CALM 0 0 0 0 1009.3 1009.2 0.0
21/05:30am 21.7 25.9 20.9 95 0.5 CALM 0 0 0 0 1008.8 1008.7 0.0
21/05:00am 21.8 24.9 21.0 95 0.5 SSW 6 7 3 4 1008.5 1008.4 0.0
21/04:30am 22.0 25.2 21.3 96 0.5 WNW 6 6 3 3 1008.3 1008.2 0.0
21/04:00am 22.1 25.4 21.4 96 0.5 WNW 6 7 3 4 1008.1 1008.0 0.0
21/03:30am 22.2 26.6 21.4 95 0.5 CALM 0 0 0 0 1007.9 1007.8 0.0
21/03:00am 22.3 26.7 21.3 94 0.7 CALM 0 0 0 0 1007.7 1007.6 0.0
21/02:30am 22.7 27.2 21.5 93 0.8 CALM 0 0 0 0 1007.9 1007.8 0.0
21/02:00am 22.7 27.2 21.5 93 0.8 CALM 0 0 0 0 1007.9 1007.8 0.0
21/01:30am 22.8 27.3 21.6 93 0.8 CALM 0 0 0 0 1008.2 1008.1 0.0
21/01:00am 22.8 25.9 21.4 92 0.9 WSW 7 9 4 5 1008.4 1008.3 0.0
21/12:30am 23.3 26.8 21.9 92 0.9 SW 6 9 3 5 1008.7 1008.6 0.0
21/12:00am 23.8 28.0 22.4 92 0.9 S 4 7 2 4 1008.8 1008.7 0.0
 
Date/Time
EST
Temp
°C
App
Temp
°C
Dew
Point
°C
Rel
Hum
%
Delta-T
°C
Wind Press
QNH
hPa
Press
MSL
hPa
Rain since
9am
mm
Dir  Spd
km/h
Gust
km/h
Spd
kts
Gust
kts
20/11:30pm 24.3 29.5 22.9 92 0.9 CALM 0 0 0 0 1009.2 1009.1 0.0
20/11:00pm 24.4 29.0 22.5 89 1.3 W 2 6 1 3 1009.3 1009.2 0.0
20/10:30pm 24.2 27.5 22.5 90 1.1 SW 9 11 5 6 1009.5 1009.4 0.0
20/10:00pm 25.0 29.9 22.3 85 1.8 CALM 0 0 0 0 1009.3 1009.2 0.0
20/09:30pm 25.3 30.2 22.4 84 1.9 CALM 0 0 0 0 1009.0 1008.9 0.0
20/09:00pm 25.4 29.4 22.1 82 2.2 E 4 7 2 4 1008.8 1008.7 0.0
20/08:30pm 26.3 31.6 23.0 82 2.2 CALM 0 6 0 3 1008.2 1008.1 0.0
20/08:00pm 26.5 31.9 23.2 82 2.3 CALM 0 0 0 0 1008.0 1007.9 0.0
20/07:30pm 26.5 31.3 22.8 80 2.5 NNE 2 6 1 3 1007.6 1007.5 0.0
20/07:00pm 27.0 30.2 22.4 76 3.1 NNE 9 13 5 7 1007.3 1007.2 0.0
20/06:30pm 27.9 30.4 22.4 72 3.7 NNE 13 19 7 10 1007.1 1007.0 0.0
20/06:00pm 28.9 31.8 22.4 68 4.4 NNE 11 19 6 10 1006.7 1006.6 0.0
20/05:30pm 29.5 32.0 22.5 66 4.8 E 13 19 7 10 1006.3 1006.2 0.0
20/05:00pm 30.5 31.9 21.9 60 5.8 E 17 22 9 12 1006.0 1005.9 0.0
20/04:30pm 31.0 32.5 21.2 56 6.6 E 15 19 8 10 1005.9 1005.8 0.0
20/04:00pm 31.4 33.1 22.4 59 6.2 ESE 17 22 9 12 1006.0 1005.9 0.0
20/03:30pm 32.1 34.2 23.1 59 6.2 E 17 24 9 13 1006.2 1006.1 0.0
20/03:00pm 31.8 33.3 21.3 53 7.1 E 15 24 8 13 1006.5 1006.4 0.0
20/02:30pm 32.0 34.3 22.7 58 6.4 ESE 15 22 8 12 1006.8 1006.7 0.0
20/02:00pm 32.4 35.1 22.2 55 7.0 ENE 11 19 6 10 1007.2 1007.1 0.0
20/01:30pm 32.2 35.2 20.8 51 7.6 NE 6 11 3 6 1007.8 1007.7 0.0
20/01:00pm 31.9 34.2 19.5 47 8.2 NNE 6 11 3 6 1008.4 1008.3 0.0
20/12:30pm 31.4 33.1 19.4 49 7.9 N 9 17 5 9 1008.9 1008.8 0.0
20/12:00pm 30.9 32.7 19.6 51 7.4 ENE 9 13 5 7 1009.1 1009.0 0.0
20/11:30am 31.2 33.9 20.2 52 7.3 NE 6 11 3 6 1009.3 1009.2 0.0
20/11:00am 30.1 32.6 19.8 54 6.8 NNE 6 11 3 6 1009.6 1009.5 0.0
20/10:30am 30.3 33.8 21.1 58 6.2 SW 4 11 2 6 1009.7 1009.6 0.0
20/10:00am 29.4 32.5 21.4 62 5.4 WSW 7 17 4 9 1010.1 1010.0 0.0
20/09:30am 29.5 32.6 21.4 61 5.4 ENE 7 13 4 7 1010.3 1010.2 0.0
20/09:00am 28.4 32.1 22.2 69 4.2 W 6 13 3 7 1010.3 1010.2 0.0
20/08:30am 27.3 31.3 23.1 78 2.9 SW 7 11 4 6 1010.1 1010.0 0.0
20/08:00am 26.0 30.0 23.1 84 2.0 SSW 7 15 4 8 1010.0 1009.9 0.0
20/07:30am 24.7 29.0 22.6 88 1.4 SW 4 9 2 5 1009.9 1009.8 0.0
20/07:00am 23.8 28.6 22.1 90 1.1 CALM 0 0 0 0 1009.7 1009.6 0.0
20/06:30am 22.1 26.5 21.3 95 0.5 CALM 0 0 0 0 1009.4 1009.3 0.0
20/06:20am 21.7 26.0 21.2 97 0.3 CALM 0 0 0 0 1009.3 1009.2 0.0
20/06:00am 20.9 24.8 20.4 97 0.3 CALM 0 0 0 0 1009.1 1009.0 0.0
20/05:31am 20.8 24.6 20.1 96 0.4 CALM 0 0 0 0 1008.7 1008.6 0.0
20/05:30am 20.8 24.6 20.1 96 0.4 CALM 0 0 0 0 1008.7 1008.6 0.0
20/05:08am 20.9 24.7 20.2 96 0.4 CALM 0 0 0 0 1008.3 1008.2 0.0
20/05:00am 21.2 24.8 20.5 96 0.5 N 2 6 1 3 1008.1 1008.0 0.0
20/04:30am 21.4 25.5 20.7 96 0.5 CALM 0 0 0 0 1008.0 1007.9 0.0
20/04:00am 21.9 26.2 21.2 96 0.5 CALM 0 0 0 0 1007.9 1007.8 0.0
20/03:30am 22.3 26.8 21.5 95 0.5 CALM 0 0 0 0 1008.1 1008.0 0.0
20/03:00am 22.3 26.0 21.5 95 0.5 SW 4 9 2 5 1008.1 1008.0 0.0
20/02:30am 22.5 25.0 21.7 95 0.5 SSW 11 11 6 6 1008.3 1008.2 0.0
20/02:00am 22.9 26.4 21.9 94 0.7 SSW 6 7 3 4 1008.4 1008.3 0.0
20/01:30am 23.1 26.7 22.1 94 0.7 SSW 6 7 3 4 1008.6 1008.5 0.0
20/01:00am 23.5 28.5 22.5 94 0.7 CALM 0 0 0 0 1008.8 1008.7 0.0
20/12:30am 23.6 28.4 22.2 92 0.9 CALM 0 0 0 0 1009.2 1009.1 0.0
20/12:00am 23.9 28.9 22.5 92 0.9 CALM 0 0 0 0 1009.3 1009.2 0.0
 
Date/Time
EST
Temp
°C
App
Temp
°C
Dew
Point
°C
Rel
Hum
%
Delta-T
°C
Wind Press
QNH
hPa
Press
MSL
hPa
Rain since
9am
mm
Dir  Spd
km/h
Gust
km/h
Spd
kts
Gust
kts
19/11:30pm 23.9 28.8 22.3 91 1.1 CALM 0 0 0 0 1009.5 1009.4 0.0
19/11:00pm 23.9 28.7 22.2 90 1.1 CALM 0 0 0 0 1009.5 1009.4 0.0
19/10:30pm 24.6 29.5 22.3 87 1.5 CALM 0 0 0 0 1009.5 1009.4 0.0
19/10:00pm 24.7 29.0 22.6 88 1.4 WNW 4 6 2 3 1009.3 1009.2 0.0
19/09:30pm 25.2 29.2 22.7 86 1.7 NW 6 9 3 5 1009.0 1008.9 0.0
19/09:00pm 25.2 29.0 22.7 86 1.7 NW 7 9 4 5 1008.6 1008.5 0.0
19/08:30pm 25.9 30.0 23.0 84 2.0 NNW 6 7 3 4 1008.4 1008.3 0.0
19/08:00pm 26.3 30.4 23.2 83 2.1 N 7 9 4 5 1007.9 1007.8 0.0
19/07:30pm 26.9 30.6 23.2 80 2.5 NNW 9 13 5 7 1007.7 1007.6 0.0
19/07:00pm 27.8 30.6 23.0 75 3.3 N 13 20 7 11 1007.3 1007.2 0.0
19/06:30pm 29.5 33.1 23.0 68 4.4 N 9 11 5 6 1006.9 1006.8 0.0
19/06:00pm 31.5 34.0 21.1 54 7.0 ENE 9 13 5 7 1006.7 1006.6 0.0
19/05:30pm 32.7 33.7 17.7 40 9.6 ESE 9 13 5 7 1006.4 1006.3 0.0
19/05:00pm 33.1 33.7 16.9 38 10.3 E 9 13 5 7 1006.3 1006.2 0.0
19/04:30pm 33.4 34.8 19.5 44 9.2 E 11 17 6 9 1006.3 1006.2 0.0
19/04:00pm 33.6 34.5 18.5 40 9.9 ENE 11 17 6 9 1006.3 1006.2 0.0
19/03:30pm 33.2 33.8 18.6 42 9.5 E 13 17 7 9 1006.7 1006.6 0.0
19/03:00pm 33.5 35.1 19.9 44 9.0 ENE 11 17 6 9 1006.9 1006.8 0.0
19/02:30pm 33.2 34.3 20.4 47 8.5 E 15 20 8 11 1007.3 1007.2 0.0
19/02:00pm 33.4 35.6 21.2 48 8.2 ENE 11 20 6 11 1007.8 1007.7 0.0
19/01:30pm 32.8 34.8 20.7 49 8.1 SE 11 17 6 9 1008.4 1008.3 0.0
19/01:00pm 32.9 35.1 20.4 47 8.3 ESE 9 19 5 10 1009.1 1009.0 0.0
19/12:30pm 32.4 34.3 18.6 44 9.0 NNE 6 9 3 5 1009.4 1009.3 0.0
19/12:00pm 32.3 34.4 20.2 48 8.0 ENE 9 19 5 10 1009.8 1009.7 0.0
19/11:30am 31.5 33.2 20.1 50 7.5 NE 11 19 6 10 1010.0 1009.9 0.0
19/11:00am 31.1 33.3 20.4 53 7.1 NNE 9 15 5 8 1010.1 1010.0 0.0
19/10:30am 30.2 32.4 20.4 55 6.5 NW 9 15 5 8 1010.4 1010.3 0.0
19/10:00am 29.8 32.8 22.0 63 5.3 NNW 9 17 5 9 1011.0 1010.9 0.0
19/09:30am 29.7 33.2 22.2 64 5.1 NNE 7 11 4 6 1011.5 1011.4 0.0
19/09:00am 28.8 32.1 21.8 66 4.7 NE 7 9 4 5 1011.8 1011.7 0.0
19/08:30am 28.0 32.7 22.7 73 3.6 NNE 2 7 1 4 1012.0 1011.9 0.0
19/08:00am 27.0 32.7 23.7 82 2.3 CALM 0 0 0 0 1012.1 1012.0 0.0
19/07:30am 25.2 30.4 23.6 91 1.1 NW 2 7 1 4 1011.8 1011.7 0.0
19/07:00am 24.1 29.3 22.9 93 0.8 CALM 0 0 0 0 1011.5 1011.4 0.0
19/06:30am 23.2 28.2 22.5 96 0.5 CALM 0 0 0 0 1011.2 1011.1 0.0
19/06:08am 22.4 27.0 21.7 96 0.5 CALM 0 0 0 0 1011.1 1011.0 0.0
19/06:00am 22.1 26.5 21.4 96 0.5 CALM 0 0 0 0 1011.0 1010.9 0.0
19/05:47am 22.4 27.0 21.7 96 0.5 CALM 0 0 0 0 1010.9 1010.8 0.0
19/05:30am 22.6 27.3 21.9 96 0.5 CALM 0 0 0 0 1010.8 1010.7 0.0
19/05:00am 22.6 27.3 21.9 96 0.5 CALM 0 0 0 0 1010.6 1010.5 0.0
19/04:30am 22.9 27.7 22.2 96 0.5 CALM 0 0 0 0 1010.4 1010.3 0.0
19/04:00am 23.3 28.4 22.6 96 0.5 CALM 0 0 0 0 1010.2 1010.1 0.0
19/03:30am 23.2 28.2 22.5 96 0.5 CALM 0 0 0 0 1010.2 1010.1 0.0
19/03:00am 23.0 27.9 22.3 96 0.5 CALM 0 0 0 0 1010.2 1010.1 0.0
19/02:30am 23.0 27.8 22.2 95 0.5 CALM 0 0 0 0 1010.5 1010.4 0.0
19/02:00am 23.4 28.5 22.6 95 0.5 CALM 0 0 0 0 1010.6 1010.5 0.0
19/01:30am 23.4 28.5 22.6 95 0.5 CALM 0 0 0 0 1010.8 1010.7 0.0
19/01:00am 23.9 29.1 22.9 94 0.7 CALM 0 0 0 0 1010.9 1010.8 0.0
19/12:30am 24.0 29.3 23.1 95 0.6 CALM 0 0 0 0 1011.3 1011.2 0.0
19/12:00am 24.0 29.3 23.0 94 0.7 CALM 0 0 0 0 1011.6 1011.5 0.0
 
Date/Time
EST
Temp
°C
App
Temp
°C
Dew
Point
°C
Rel
Hum
%
Delta-T
°C
Wind Press
QNH
hPa
Press
MSL
hPa
Rain since
9am
mm
Dir  Spd
km/h
Gust
km/h
Spd
kts
Gust
kts
18/11:30pm 24.5 29.9 23.3 93 0.8 CALM 0 0 0 0 1011.8 1011.7 0.0
18/11:00pm 24.7 30.1 23.3 92 1.0 CALM 0 0 0 0 1012.0 1011.9 0.0
18/10:30pm 24.6 30.0 23.2 92 0.9 CALM 0 0 0 0 1012.0 1011.9 0.0
18/10:00pm 24.9 30.2 23.1 90 1.2 CALM 0 0 0 0 1012.0 1011.9 0.0
18/09:30pm 25.1 29.4 23.3 90 1.2 ENE 6 9 3 5 1011.8 1011.7 0.0
18/09:00pm 25.6 30.0 23.5 88 1.4 E 6 9 3 5 1011.6 1011.5 0.0
18/08:30pm 25.9 29.7 23.4 86 1.7 E 9 13 5 7 1011.4 1011.3 0.0
18/08:00pm 26.2 29.7 23.5 85 1.8 E 11 13 6 7 1011.1 1011.0 0.0
18/07:30pm 26.6 30.3 23.9 85 1.9 ESE 11 15 6 8 1011.1 1011.0 0.0
18/07:00pm 27.2 30.5 23.9 82 2.3 ESE 13 19 7 10 1010.6 1010.5 0.0

Other Formats:

Comma delimited format used in spreadsheet applications
http://www.bom.gov.au/fwo/IDQ60801/IDQ60801.94365.axf

JavaScript Object Notation format (JSON) in row-major order
http://www.bom.gov.au/fwo/IDQ60801/IDQ60801.94365.json